sensor_id;sensor_type;location;lat;lon;timestamp;temperature;humidity
18426;DHT22;9340;48.756;9.226;2024-01-30T00:01:57;2.30;99.90
18426;DHT22;9340;48.756;9.226;2024-01-30T00:04:25;2.40;99.90
18426;DHT22;9340;48.756;9.226;2024-01-30T00:06:51;2.40;99.90
18426;DHT22;9340;48.756;9.226;2024-01-30T00:09:19;2.40;99.90
18426;DHT22;9340;48.756;9.226;2024-01-30T00:11:46;2.30;99.90
18426;DHT22;9340;48.756;9.226;2024-01-30T00:14:12;2.20;99.90
18426;DHT22;9340;48.756;9.226;2024-01-30T00:16:39;2.30;99.90
18426;DHT22;9340;48.756;9.226;2024-01-30T00:19:05;2.30;99.90
18426;DHT22;9340;48.756;9.226;2024-01-30T00:21:35;2.30;99.90
18426;DHT22;9340;48.756;9.226;2024-01-30T00:24:01;2.30;99.90
18426;DHT22;9340;48.756;9.226;2024-01-30T00:26:28;2.30;99.90
18426;DHT22;9340;48.756;9.226;2024-01-30T00:28:55;2.20;99.90
18426;DHT22;9340;48.756;9.226;2024-01-30T00:31:21;2.20;99.90
18426;DHT22;9340;48.756;9.226;2024-01-30T00:33:48;2.30;99.90
18426;DHT22;9340;48.756;9.226;2024-01-30T00:36:15;2.30;99.90
18426;DHT22;9340;48.756;9.226;2024-01-30T00:38:43;2.30;99.90
18426;DHT22;9340;48.756;9.226;2024-01-30T00:41:10;2.30;99.90
18426;DHT22;9340;48.756;9.226;2024-01-30T00:43:36;2.30;99.90
18426;DHT22;9340;48.756;9.226;2024-01-30T00:46:03;2.30;99.90
18426;DHT22;9340;48.756;9.226;2024-01-30T00:48:30;2.30;99.90
18426;DHT22;9340;48.756;9.226;2024-01-30T00:50:56;2.30;99.90
18426;DHT22;9340;48.756;9.226;2024-01-30T00:53:23;2.30;99.90
18426;DHT22;9340;48.756;9.226;2024-01-30T00:55:51;2.40;99.90
18426;DHT22;9340;48.756;9.226;2024-01-30T00:58:18;2.40;99.90
18426;DHT22;9340;48.756;9.226;2024-01-30T01:00:45;2.40;99.90
18426;DHT22;9340;48.756;9.226;2024-01-30T01:03:12;2.50;99.90
18426;DHT22;9340;48.756;9.226;2024-01-30T01:05:39;2.40;99.90
18426;DHT22;9340;48.756;9.226;2024-01-30T01:08:06;2.40;99.90
18426;DHT22;9340;48.756;9.226;2024-01-30T01:10:33;2.50;99.90
18426;DHT22;9340;48.756;9.226;2024-01-30T01:13:01;2.50;99.90
18426;DHT22;9340;48.756;9.226;2024-01-30T01:15:27;2.50;99.90
18426;DHT22;9340;48.756;9.226;2024-01-30T01:17:54;2.50;99.90
18426;DHT22;9340;48.756;9.226;2024-01-30T01:20:21;2.60;99.90
18426;DHT22;9340;48.756;9.226;2024-01-30T01:22:47;2.60;99.90
18426;DHT22;9340;48.756;9.226;2024-01-30T01:25:14;2.60;99.90
18426;DHT22;9340;48.756;9.226;2024-01-30T01:27:41;2.60;99.90
18426;DHT22;9340;48.756;9.226;2024-01-30T01:30:11;2.60;99.90
18426;DHT22;9340;48.756;9.226;2024-01-30T01:32:43;2.60;99.90
18426;DHT22;9340;48.756;9.226;2024-01-30T01:35:15;2.60;99.90
18426;DHT22;9340;48.756;9.226;2024-01-30T01:37:42;2.50;99.90
18426;DHT22;9340;48.756;9.226;2024-01-30T01:40:09;2.50;99.90
18426;DHT22;9340;48.756;9.226;2024-01-30T01:42:36;2.50;99.90
18426;DHT22;9340;48.756;9.226;2024-01-30T01:45:03;2.40;99.90
18426;DHT22;9340;48.756;9.226;2024-01-30T01:47:31;2.40;99.90
18426;DHT22;9340;48.756;9.226;2024-01-30T01:49:58;2.40;99.90
18426;DHT22;9340;48.756;9.226;2024-01-30T01:52:25;2.30;99.90
18426;DHT22;9340;48.756;9.226;2024-01-30T01:54:52;2.20;99.90
18426;DHT22;9340;48.756;9.226;2024-01-30T01:57:19;2.20;99.90
18426;DHT22;9340;48.756;9.226;2024-01-30T01:59:46;2.20;99.90
18426;DHT22;9340;48.756;9.226;2024-01-30T02:02:13;2.30;99.90
18426;DHT22;9340;48.756;9.226;2024-01-30T02:04:42;2.30;99.90
18426;DHT22;9340;48.756;9.226;2024-01-30T02:07:09;2.20;99.90
18426;DHT22;9340;48.756;9.226;2024-01-30T02:09:37;2.30;99.90
18426;DHT22;9340;48.756;9.226;2024-01-30T02:12:04;2.10;99.90
18426;DHT22;9340;48.756;9.226;2024-01-30T02:14:30;2.10;99.90
18426;DHT22;9340;48.756;9.226;2024-01-30T02:16:57;2.00;99.90
18426;DHT22;9340;48.756;9.226;2024-01-30T02:19:24;2.00;99.90
18426;DHT22;9340;48.756;9.226;2024-01-30T02:21:52;2.00;99.90
18426;DHT22;9340;48.756;9.226;2024-01-30T02:24:19;2.00;99.90
18426;DHT22;9340;48.756;9.226;2024-01-30T02:26:46;2.00;99.90
18426;DHT22;9340;48.756;9.226;2024-01-30T02:29:12;2.00;99.90
18426;DHT22;9340;48.756;9.226;2024-01-30T02:31:39;1.90;99.90
18426;DHT22;9340;48.756;9.226;2024-01-30T02:34:06;1.90;99.90
18426;DHT22;9340;48.756;9.226;2024-01-30T02:36:33;1.80;99.90
18426;DHT22;9340;48.756;9.226;2024-01-30T02:39:01;1.80;99.90
18426;DHT22;9340;48.756;9.226;2024-01-30T02:41:28;1.80;99.90
18426;DHT22;9340;48.756;9.226;2024-01-30T02:43:55;1.80;99.90
18426;DHT22;9340;48.756;9.226;2024-01-30T02:46:22;1.80;99.90
18426;DHT22;9340;48.756;9.226;2024-01-30T02:48:48;1.80;99.90
18426;DHT22;9340;48.756;9.226;2024-01-30T02:51:15;1.80;99.90
18426;DHT22;9340;48.756;9.226;2024-01-30T02:53:42;1.80;99.90
18426;DHT22;9340;48.756;9.226;2024-01-30T02:56:10;1.70;99.90
18426;DHT22;9340;48.756;9.226;2024-01-30T02:58:37;1.70;99.90
18426;DHT22;9340;48.756;9.226;2024-01-30T03:01:04;1.70;99.90
18426;DHT22;9340;48.756;9.226;2024-01-30T03:03:30;1.70;99.90
18426;DHT22;9340;48.756;9.226;2024-01-30T03:05:57;1.60;99.90
18426;DHT22;9340;48.756;9.226;2024-01-30T03:08:24;1.60;99.90
18426;DHT22;9340;48.756;9.226;2024-01-30T03:10:50;1.60;99.90
18426;DHT22;9340;48.756;9.226;2024-01-30T03:13:18;1.50;99.90
18426;DHT22;9340;48.756;9.226;2024-01-30T03:15:45;1.50;99.90
18426;DHT22;9340;48.756;9.226;2024-01-30T03:18:12;1.50;99.90
18426;DHT22;9340;48.756;9.226;2024-01-30T03:20:39;1.50;99.90
18426;DHT22;9340;48.756;9.226;2024-01-30T03:23:05;1.50;99.90
18426;DHT22;9340;48.756;9.226;2024-01-30T03:25:32;1.50;99.90
18426;DHT22;9340;48.756;9.226;2024-01-30T03:27:58;1.50;99.90
18426;DHT22;9340;48.756;9.226;2024-01-30T03:30:26;1.50;99.90
18426;DHT22;9340;48.756;9.226;2024-01-30T03:32:53;1.40;99.90
18426;DHT22;9340;48.756;9.226;2024-01-30T03:35:20;1.40;99.90
18426;DHT22;9340;48.756;9.226;2024-01-30T03:37:46;1.40;99.90
18426;DHT22;9340;48.756;9.226;2024-01-30T03:40:13;1.40;99.90
18426;DHT22;9340;48.756;9.226;2024-01-30T03:42:40;1.40;99.90
18426;DHT22;9340;48.756;9.226;2024-01-30T03:45:08;1.40;99.90
18426;DHT22;9340;48.756;9.226;2024-01-30T03:47:36;1.50;99.90
18426;DHT22;9340;48.756;9.226;2024-01-30T03:50:03;1.50;99.90
18426;DHT22;9340;48.756;9.226;2024-01-30T03:52:30;1.50;99.90
18426;DHT22;9340;48.756;9.226;2024-01-30T03:54:57;1.40;99.90
18426;DHT22;9340;48.756;9.226;2024-01-30T03:57:23;1.40;99.90
18426;DHT22;9340;48.756;9.226;2024-01-30T03:59:50;1.40;99.90
18426;DHT22;9340;48.756;9.226;2024-01-30T04:02:16;1.40;99.90
18426;DHT22;9340;48.756;9.226;2024-01-30T04:04:45;1.40;99.90
18426;DHT22;9340;48.756;9.226;2024-01-30T04:07:12;1.40;99.90
18426;DHT22;9340;48.756;9.226;2024-01-30T04:09:39;1.40;99.90
18426;DHT22;9340;48.756;9.226;2024-01-30T04:12:06;1.30;99.90
18426;DHT22;9340;48.756;9.226;2024-01-30T04:14:33;1.20;99.90
18426;DHT22;9340;48.756;9.226;2024-01-30T04:17:00;1.10;99.90
18426;DHT22;9340;48.756;9.226;2024-01-30T04:19:27;1.10;99.90
18426;DHT22;9340;48.756;9.226;2024-01-30T04:21:55;1.20;99.90
18426;DHT22;9340;48.756;9.226;2024-01-30T04:24:22;1.20;99.90
18426;DHT22;9340;48.756;9.226;2024-01-30T04:26:48;1.20;99.90
18426;DHT22;9340;48.756;9.226;2024-01-30T04:29:15;1.20;99.90
18426;DHT22;9340;48.756;9.226;2024-01-30T04:31:42;1.20;99.90
18426;DHT22;9340;48.756;9.226;2024-01-30T04:34:08;1.10;99.90
18426;DHT22;9340;48.756;9.226;2024-01-30T04:36:35;1.20;99.90
18426;DHT22;9340;48.756;9.226;2024-01-30T04:39:03;1.10;99.90
18426;DHT22;9340;48.756;9.226;2024-01-30T04:41:30;1.10;99.90
18426;DHT22;9340;48.756;9.226;2024-01-30T04:43:57;1.10;99.90
18426;DHT22;9340;48.756;9.226;2024-01-30T04:46:24;1.10;99.90
18426;DHT22;9340;48.756;9.226;2024-01-30T04:48:51;1.00;99.90
18426;DHT22;9340;48.756;9.226;2024-01-30T04:51:17;1.00;99.90
18426;DHT22;9340;48.756;9.226;2024-01-30T04:53:44;1.00;99.90
18426;DHT22;9340;48.756;9.226;2024-01-30T04:56:12;1.00;99.90
18426;DHT22;9340;48.756;9.226;2024-01-30T04:58:39;1.10;99.90
18426;DHT22;9340;48.756;9.226;2024-01-30T05:01:05;1.10;99.90
18426;DHT22;9340;48.756;9.226;2024-01-30T05:03:33;1.10;99.90
18426;DHT22;9340;48.756;9.226;2024-01-30T05:06:00;1.00;99.90
18426;DHT22;9340;48.756;9.226;2024-01-30T05:08:27;1.00;99.90
18426;DHT22;9340;48.756;9.226;2024-01-30T05:10:53;1.00;99.90
18426;DHT22;9340;48.756;9.226;2024-01-30T05:13:21;1.00;99.90
18426;DHT22;9340;48.756;9.226;2024-01-30T05:15:48;1.00;99.90
18426;DHT22;9340;48.756;9.226;2024-01-30T05:18:15;1.00;99.90
18426;DHT22;9340;48.756;9.226;2024-01-30T05:20:41;1.10;99.90
18426;DHT22;9340;48.756;9.226;2024-01-30T05:23:08;1.00;99.90
18426;DHT22;9340;48.756;9.226;2024-01-30T05:25:35;1.00;99.90
18426;DHT22;9340;48.756;9.226;2024-01-30T05:28:01;0.90;99.90
18426;DHT22;9340;48.756;9.226;2024-01-30T05:30:29;0.90;99.90
18426;DHT22;9340;48.756;9.226;2024-01-30T05:32:56;0.90;99.90
18426;DHT22;9340;48.756;9.226;2024-01-30T05:35:23;0.90;99.90
18426;DHT22;9340;48.756;9.226;2024-01-30T05:37:50;0.80;99.90
18426;DHT22;9340;48.756;9.226;2024-01-30T05:40:17;0.90;99.90
18426;DHT22;9340;48.756;9.226;2024-01-30T05:42:44;0.90;99.90
18426;DHT22;9340;48.756;9.226;2024-01-30T05:45:10;0.90;99.90
18426;DHT22;9340;48.756;9.226;2024-01-30T05:47:39;0.90;99.90
18426;DHT22;9340;48.756;9.226;2024-01-30T05:50:07;1.00;99.90
18426;DHT22;9340;48.756;9.226;2024-01-30T05:52:34;1.00;99.90
18426;DHT22;9340;48.756;9.226;2024-01-30T05:55:00;1.00;99.90
18426;DHT22;9340;48.756;9.226;2024-01-30T05:57:27;1.10;99.90
18426;DHT22;9340;48.756;9.226;2024-01-30T05:59:54;1.10;99.90
18426;DHT22;9340;48.756;9.226;2024-01-30T06:02:21;1.10;99.90
18426;DHT22;9340;48.756;9.226;2024-01-30T06:04:49;1.10;99.90
18426;DHT22;9340;48.756;9.226;2024-01-30T06:07:15;1.20;99.90
18426;DHT22;9340;48.756;9.226;2024-01-30T06:09:42;1.10;99.90
18426;DHT22;9340;48.756;9.226;2024-01-30T06:12:09;1.10;99.90
18426;DHT22;9340;48.756;9.226;2024-01-30T06:14:37;1.00;99.90
18426;DHT22;9340;48.756;9.226;2024-01-30T06:17:03;1.00;99.90
18426;DHT22;9340;48.756;9.226;2024-01-30T06:19:31;1.00;99.90
18426;DHT22;9340;48.756;9.226;2024-01-30T06:21:59;1.00;99.90
18426;DHT22;9340;48.756;9.226;2024-01-30T06:24:25;1.00;99.90
18426;DHT22;9340;48.756;9.226;2024-01-30T06:26:53;0.90;99.90
18426;DHT22;9340;48.756;9.226;2024-01-30T06:29:19;0.90;99.90
18426;DHT22;9340;48.756;9.226;2024-01-30T06:31:46;0.90;99.90
18426;DHT22;9340;48.756;9.226;2024-01-30T06:34:13;1.00;99.90
18426;DHT22;9340;48.756;9.226;2024-01-30T06:36:40;0.90;99.90
18426;DHT22;9340;48.756;9.226;2024-01-30T06:39:08;0.90;99.90
18426;DHT22;9340;48.756;9.226;2024-01-30T06:41:34;0.90;99.90
18426;DHT22;9340;48.756;9.226;2024-01-30T06:44:02;0.90;99.90
18426;DHT22;9340;48.756;9.226;2024-01-30T06:46:29;0.90;99.90
18426;DHT22;9340;48.756;9.226;2024-01-30T06:48:56;0.90;99.90
18426;DHT22;9340;48.756;9.226;2024-01-30T06:51:22;0.90;99.90
18426;DHT22;9340;48.756;9.226;2024-01-30T06:53:49;0.90;99.90
18426;DHT22;9340;48.756;9.226;2024-01-30T06:56:17;0.80;99.90
18426;DHT22;9340;48.756;9.226;2024-01-30T06:58:46;0.90;99.90
18426;DHT22;9340;48.756;9.226;2024-01-30T07:01:14;0.80;99.90
18426;DHT22;9340;48.756;9.226;2024-01-30T07:03:41;0.80;99.90
18426;DHT22;9340;48.756;9.226;2024-01-30T07:06:08;0.80;99.90
18426;DHT22;9340;48.756;9.226;2024-01-30T07:08:36;0.90;99.90
18426;DHT22;9340;48.756;9.226;2024-01-30T07:11:04;0.80;99.90
18426;DHT22;9340;48.756;9.226;2024-01-30T07:13:33;0.80;99.90
18426;DHT22;9340;48.756;9.226;2024-01-30T07:16:00;0.90;99.90
18426;DHT22;9340;48.756;9.226;2024-01-30T07:18:27;0.90;99.90
18426;DHT22;9340;48.756;9.226;2024-01-30T07:20:54;0.90;99.90
18426;DHT22;9340;48.756;9.226;2024-01-30T07:23:20;1.00;99.90
18426;DHT22;9340;48.756;9.226;2024-01-30T07:25:48;1.00;99.90
18426;DHT22;9340;48.756;9.226;2024-01-30T07:28:15;1.00;99.90
18426;DHT22;9340;48.756;9.226;2024-01-30T07:30:43;1.10;99.90
18426;DHT22;9340;48.756;9.226;2024-01-30T07:33:10;1.20;99.90
18426;DHT22;9340;48.756;9.226;2024-01-30T07:35:37;1.20;99.90
18426;DHT22;9340;48.756;9.226;2024-01-30T07:38:03;1.20;99.90
18426;DHT22;9340;48.756;9.226;2024-01-30T07:40:30;1.20;99.90
18426;DHT22;9340;48.756;9.226;2024-01-30T07:42:58;1.30;99.90
18426;DHT22;9340;48.756;9.226;2024-01-30T07:45:25;1.30;99.90
18426;DHT22;9340;48.756;9.226;2024-01-30T07:47:54;1.80;99.90
18426;DHT22;9340;48.756;9.226;2024-01-30T07:50:21;1.90;99.90
18426;DHT22;9340;48.756;9.226;2024-01-30T07:52:47;1.80;99.90
18426;DHT22;9340;48.756;9.226;2024-01-30T07:55:16;1.80;99.90
18426;DHT22;9340;48.756;9.226;2024-01-30T07:57:44;1.90;99.90
18426;DHT22;9340;48.756;9.226;2024-01-30T08:00:12;1.90;99.90
18426;DHT22;9340;48.756;9.226;2024-01-30T08:02:39;2.00;99.90
18426;DHT22;9340;48.756;9.226;2024-01-30T08:05:07;1.90;99.90
18426;DHT22;9340;48.756;9.226;2024-01-30T08:07:36;2.00;99.90
18426;DHT22;9340;48.756;9.226;2024-01-30T08:10:03;2.10;99.90
18426;DHT22;9340;48.756;9.226;2024-01-30T08:12:29;2.20;99.90
18426;DHT22;9340;48.756;9.226;2024-01-30T08:14:56;2.30;99.90
18426;DHT22;9340;48.756;9.226;2024-01-30T08:17:23;2.40;99.90
18426;DHT22;9340;48.756;9.226;2024-01-30T08:19:49;2.50;99.90
18426;DHT22;9340;48.756;9.226;2024-01-30T08:22:17;2.60;99.90
18426;DHT22;9340;48.756;9.226;2024-01-30T08:24:44;2.80;99.90
18426;DHT22;9340;48.756;9.226;2024-01-30T08:27:10;2.90;99.90
18426;DHT22;9340;48.756;9.226;2024-01-30T08:29:37;3.10;99.90
18426;DHT22;9340;48.756;9.226;2024-01-30T08:32:05;3.40;99.90
18426;DHT22;9340;48.756;9.226;2024-01-30T08:34:32;3.50;99.90
18426;DHT22;9340;48.756;9.226;2024-01-30T08:36:59;3.70;99.90
18426;DHT22;9340;48.756;9.226;2024-01-30T08:39:27;3.90;99.90
18426;DHT22;9340;48.756;9.226;2024-01-30T08:41:54;4.00;99.90
18426;DHT22;9340;48.756;9.226;2024-01-30T08:44:20;4.20;99.90
18426;DHT22;9340;48.756;9.226;2024-01-30T08:46:47;4.40;99.90
18426;DHT22;9340;48.756;9.226;2024-01-30T08:49:16;4.60;99.90
18426;DHT22;9340;48.756;9.226;2024-01-30T08:51:43;4.70;99.90
18426;DHT22;9340;48.756;9.226;2024-01-30T08:54:09;4.80;99.90
18426;DHT22;9340;48.756;9.226;2024-01-30T08:56:37;4.80;99.90
18426;DHT22;9340;48.756;9.226;2024-01-30T08:59:04;4.90;99.90
18426;DHT22;9340;48.756;9.226;2024-01-30T09:01:31;4.90;99.90
18426;DHT22;9340;48.756;9.226;2024-01-30T09:03:57;4.90;99.90
18426;DHT22;9340;48.756;9.226;2024-01-30T09:06:24;5.00;99.90
18426;DHT22;9340;48.756;9.226;2024-01-30T09:08:52;5.00;99.90
18426;DHT22;9340;48.756;9.226;2024-01-30T09:11:18;5.00;99.90
18426;DHT22;9340;48.756;9.226;2024-01-30T09:13:46;5.10;99.90
18426;DHT22;9340;48.756;9.226;2024-01-30T09:16:13;5.20;99.90
18426;DHT22;9340;48.756;9.226;2024-01-30T09:18:41;5.30;99.90
18426;DHT22;9340;48.756;9.226;2024-01-30T09:21:08;5.40;99.90
18426;DHT22;9340;48.756;9.226;2024-01-30T09:23:34;5.50;99.90
18426;DHT22;9340;48.756;9.226;2024-01-30T09:26:01;5.50;99.90
18426;DHT22;9340;48.756;9.226;2024-01-30T09:28:28;5.70;99.90
18426;DHT22;9340;48.756;9.226;2024-01-30T09:30:56;5.70;99.90
18426;DHT22;9340;48.756;9.226;2024-01-30T09:33:23;5.80;99.90
18426;DHT22;9340;48.756;9.226;2024-01-30T09:35:49;5.90;99.90
18426;DHT22;9340;48.756;9.226;2024-01-30T09:38:16;5.90;99.90
18426;DHT22;9340;48.756;9.226;2024-01-30T09:40:43;6.00;99.90
18426;DHT22;9340;48.756;9.226;2024-01-30T09:43:14;6.10;99.90
18426;DHT22;9340;48.756;9.226;2024-01-30T09:45:44;6.20;99.90
18426;DHT22;9340;48.756;9.226;2024-01-30T09:48:12;6.30;99.90
18426;DHT22;9340;48.756;9.226;2024-01-30T09:50:39;6.40;99.90
18426;DHT22;9340;48.756;9.226;2024-01-30T09:53:07;6.50;99.90
18426;DHT22;9340;48.756;9.226;2024-01-30T09:55:35;6.50;99.90
18426;DHT22;9340;48.756;9.226;2024-01-30T09:58:02;6.50;99.90
18426;DHT22;9340;48.756;9.226;2024-01-30T10:00:28;6.60;99.90
18426;DHT22;9340;48.756;9.226;2024-01-30T10:02:55;6.80;99.90
18426;DHT22;9340;48.756;9.226;2024-01-30T10:05:27;6.90;99.90
18426;DHT22;9340;48.756;9.226;2024-01-30T10:07:53;7.00;99.90
18426;DHT22;9340;48.756;9.226;2024-01-30T10:10:21;7.20;99.90
18426;DHT22;9340;48.756;9.226;2024-01-30T10:12:48;7.40;99.90
18426;DHT22;9340;48.756;9.226;2024-01-30T10:15:15;7.50;99.90
18426;DHT22;9340;48.756;9.226;2024-01-30T10:17:44;7.60;99.90
18426;DHT22;9340;48.756;9.226;2024-01-30T10:20:11;7.70;99.90
18426;DHT22;9340;48.756;9.226;2024-01-30T10:22:40;8.00;99.90
18426;DHT22;9340;48.756;9.226;2024-01-30T10:25:08;8.10;99.90
18426;DHT22;9340;48.756;9.226;2024-01-30T10:27:36;8.20;99.90
18426;DHT22;9340;48.756;9.226;2024-01-30T10:30:03;8.40;99.90
18426;DHT22;9340;48.756;9.226;2024-01-30T10:32:30;8.50;99.90
18426;DHT22;9340;48.756;9.226;2024-01-30T10:34:56;8.60;99.90
18426;DHT22;9340;48.756;9.226;2024-01-30T10:37:25;8.70;99.90
18426;DHT22;9340;48.756;9.226;2024-01-30T10:39:54;8.80;99.90
18426;DHT22;9340;48.756;9.226;2024-01-30T10:42:26;8.80;99.90
18426;DHT22;9340;48.756;9.226;2024-01-30T10:45:00;9.00;99.90
18426;DHT22;9340;48.756;9.226;2024-01-30T10:47:29;9.00;99.90
18426;DHT22;9340;48.756;9.226;2024-01-30T10:49:56;9.10;99.90
18426;DHT22;9340;48.756;9.226;2024-01-30T10:52:24;9.20;99.90
18426;DHT22;9340;48.756;9.226;2024-01-30T10:54:52;9.10;99.90
18426;DHT22;9340;48.756;9.226;2024-01-30T10:57:23;9.20;99.90
18426;DHT22;9340;48.756;9.226;2024-01-30T10:59:52;9.20;99.90
18426;DHT22;9340;48.756;9.226;2024-01-30T11:02:19;9.30;99.90
18426;DHT22;9340;48.756;9.226;2024-01-30T11:04:46;9.50;99.90
18426;DHT22;9340;48.756;9.226;2024-01-30T11:07:16;9.60;99.90
18426;DHT22;9340;48.756;9.226;2024-01-30T11:09:49;9.70;99.90
18426;DHT22;9340;48.756;9.226;2024-01-30T11:12:16;9.80;99.90
18426;DHT22;9340;48.756;9.226;2024-01-30T11:14:49;9.90;99.90
18426;DHT22;9340;48.756;9.226;2024-01-30T11:17:15;9.90;99.90
18426;DHT22;9340;48.756;9.226;2024-01-30T11:19:43;10.00;99.90
18426;DHT22;9340;48.756;9.226;2024-01-30T11:22:10;10.20;99.90
18426;DHT22;9340;48.756;9.226;2024-01-30T11:24:39;10.20;99.90
18426;DHT22;9340;48.756;9.226;2024-01-30T11:27:08;10.30;99.90
18426;DHT22;9340;48.756;9.226;2024-01-30T11:29:35;10.40;99.90
18426;DHT22;9340;48.756;9.226;2024-01-30T11:32:04;10.50;99.90
18426;DHT22;9340;48.756;9.226;2024-01-30T11:34:32;10.50;99.90
18426;DHT22;9340;48.756;9.226;2024-01-30T11:37:03;10.60;99.90
18426;DHT22;9340;48.756;9.226;2024-01-30T11:39:30;10.70;99.90
18426;DHT22;9340;48.756;9.226;2024-01-30T11:41:57;10.60;99.90
18426;DHT22;9340;48.756;9.226;2024-01-30T11:44:25;10.70;99.90
18426;DHT22;9340;48.756;9.226;2024-01-30T11:46:52;10.70;99.90
18426;DHT22;9340;48.756;9.226;2024-01-30T11:49:20;10.80;99.90
18426;DHT22;9340;48.756;9.226;2024-01-30T11:51:47;10.90;99.90
18426;DHT22;9340;48.756;9.226;2024-01-30T11:54:15;11.00;99.90
18426;DHT22;9340;48.756;9.226;2024-01-30T11:56:42;11.10;99.90
18426;DHT22;9340;48.756;9.226;2024-01-30T11:59:09;11.10;99.90
18426;DHT22;9340;48.756;9.226;2024-01-30T12:01:36;11.20;99.90
18426;DHT22;9340;48.756;9.226;2024-01-30T12:04:03;11.30;99.90
18426;DHT22;9340;48.756;9.226;2024-01-30T12:06:35;11.30;99.90
18426;DHT22;9340;48.756;9.226;2024-01-30T12:09:03;11.40;99.90
18426;DHT22;9340;48.756;9.226;2024-01-30T12:11:30;11.40;99.90
18426;DHT22;9340;48.756;9.226;2024-01-30T12:13:57;11.50;99.90
18426;DHT22;9340;48.756;9.226;2024-01-30T12:16:24;11.50;99.90
18426;DHT22;9340;48.756;9.226;2024-01-30T12:18:59;11.60;99.90
18426;DHT22;9340;48.756;9.226;2024-01-30T12:21:26;11.60;99.90
18426;DHT22;9340;48.756;9.226;2024-01-30T12:23:54;11.70;99.90
18426;DHT22;9340;48.756;9.226;2024-01-30T12:26:21;11.80;99.90
18426;DHT22;9340;48.756;9.226;2024-01-30T12:28:49;11.80;99.90
18426;DHT22;9340;48.756;9.226;2024-01-30T12:31:16;11.90;99.90
18426;DHT22;9340;48.756;9.226;2024-01-30T12:33:42;11.90;99.90
18426;DHT22;9340;48.756;9.226;2024-01-30T12:36:09;11.90;99.90
18426;DHT22;9340;48.756;9.226;2024-01-30T12:38:37;12.00;99.90
18426;DHT22;9340;48.756;9.226;2024-01-30T12:41:07;12.10;99.90
18426;DHT22;9340;48.756;9.226;2024-01-30T12:43:33;12.10;99.90
18426;DHT22;9340;48.756;9.226;2024-01-30T12:46:00;12.10;99.90
18426;DHT22;9340;48.756;9.226;2024-01-30T12:48:28;12.10;99.90
18426;DHT22;9340;48.756;9.226;2024-01-30T12:50:55;12.20;99.90
18426;DHT22;9340;48.756;9.226;2024-01-30T12:53:22;12.20;99.90
18426;DHT22;9340;48.756;9.226;2024-01-30T12:55:49;12.30;99.90
18426;DHT22;9340;48.756;9.226;2024-01-30T12:58:17;12.30;99.90
18426;DHT22;9340;48.756;9.226;2024-01-30T13:00:43;12.40;99.90
18426;DHT22;9340;48.756;9.226;2024-01-30T13:03:10;12.40;99.90
18426;DHT22;9340;48.756;9.226;2024-01-30T13:05:37;12.40;99.90
18426;DHT22;9340;48.756;9.226;2024-01-30T13:08:05;12.30;99.90
18426;DHT22;9340;48.756;9.226;2024-01-30T13:10:31;12.40;99.90
18426;DHT22;9340;48.756;9.226;2024-01-30T13:12:58;12.30;99.90
18426;DHT22;9340;48.756;9.226;2024-01-30T13:15:26;12.30;99.90
18426;DHT22;9340;48.756;9.226;2024-01-30T13:17:53;12.40;99.90
18426;DHT22;9340;48.756;9.226;2024-01-30T13:20:20;12.40;99.90
18426;DHT22;9340;48.756;9.226;2024-01-30T13:22:47;12.50;99.90
18426;DHT22;9340;48.756;9.226;2024-01-30T13:25:15;12.60;99.90
18426;DHT22;9340;48.756;9.226;2024-01-30T13:27:41;12.60;99.90
18426;DHT22;9340;48.756;9.226;2024-01-30T13:30:08;12.70;99.90
18426;DHT22;9340;48.756;9.226;2024-01-30T13:32:37;12.80;99.90
18426;DHT22;9340;48.756;9.226;2024-01-30T13:35:04;12.70;99.90
18426;DHT22;9340;48.756;9.226;2024-01-30T13:37:31;12.70;99.90
18426;DHT22;9340;48.756;9.226;2024-01-30T13:39:57;12.70;99.90
18426;DHT22;9340;48.756;9.226;2024-01-30T13:42:24;12.70;99.90
18426;DHT22;9340;48.756;9.226;2024-01-30T13:44:51;12.50;99.90
18426;DHT22;9340;48.756;9.226;2024-01-30T13:47:17;12.50;99.90
18426;DHT22;9340;48.756;9.226;2024-01-30T13:49:48;12.40;99.90
18426;DHT22;9340;48.756;9.226;2024-01-30T13:52:14;12.40;99.90
18426;DHT22;9340;48.756;9.226;2024-01-30T13:54:41;12.30;99.90
18426;DHT22;9340;48.756;9.226;2024-01-30T13:57:08;12.20;99.90
18426;DHT22;9340;48.756;9.226;2024-01-30T13:59:35;12.20;99.90
18426;DHT22;9340;48.756;9.226;2024-01-30T14:02:02;12.10;99.90
18426;DHT22;9340;48.756;9.226;2024-01-30T14:04:28;12.20;99.90
18426;DHT22;9340;48.756;9.226;2024-01-30T14:06:56;12.10;99.90
18426;DHT22;9340;48.756;9.226;2024-01-30T14:09:23;12.00;99.90
18426;DHT22;9340;48.756;9.226;2024-01-30T14:11:50;12.10;99.90
18426;DHT22;9340;48.756;9.226;2024-01-30T14:14:17;12.10;99.90
18426;DHT22;9340;48.756;9.226;2024-01-30T14:16:43;12.00;99.90
18426;DHT22;9340;48.756;9.226;2024-01-30T14:19:10;12.00;99.90
18426;DHT22;9340;48.756;9.226;2024-01-30T14:21:37;12.00;99.90
18426;DHT22;9340;48.756;9.226;2024-01-30T14:24:05;11.90;99.90
18426;DHT22;9340;48.756;9.226;2024-01-30T14:26:32;11.90;99.90
18426;DHT22;9340;48.756;9.226;2024-01-30T14:28:59;11.90;99.90
18426;DHT22;9340;48.756;9.226;2024-01-30T14:31:25;11.90;99.90
18426;DHT22;9340;48.756;9.226;2024-01-30T14:33:52;11.90;99.90
18426;DHT22;9340;48.756;9.226;2024-01-30T14:36:20;11.90;99.90
18426;DHT22;9340;48.756;9.226;2024-01-30T14:38:47;11.90;99.90
18426;DHT22;9340;48.756;9.226;2024-01-30T14:41:15;11.80;99.90
18426;DHT22;9340;48.756;9.226;2024-01-30T14:43:42;11.80;99.90
18426;DHT22;9340;48.756;9.226;2024-01-30T14:46:08;11.70;99.90
18426;DHT22;9340;48.756;9.226;2024-01-30T14:48:35;11.70;99.90
18426;DHT22;9340;48.756;9.226;2024-01-30T14:51:02;11.70;99.90
18426;DHT22;9340;48.756;9.226;2024-01-30T14:53:29;11.70;99.90
18426;DHT22;9340;48.756;9.226;2024-01-30T14:55:57;11.70;99.90
18426;DHT22;9340;48.756;9.226;2024-01-30T14:58:25;11.60;99.90
18426;DHT22;9340;48.756;9.226;2024-01-30T15:00:51;11.60;99.90
18426;DHT22;9340;48.756;9.226;2024-01-30T15:03:18;11.60;99.90
18426;DHT22;9340;48.756;9.226;2024-01-30T15:05:45;11.60;99.90
18426;DHT22;9340;48.756;9.226;2024-01-30T15:08:11;11.50;99.90
18426;DHT22;9340;48.756;9.226;2024-01-30T15:10:38;11.40;99.90
18426;DHT22;9340;48.756;9.226;2024-01-30T15:13:05;11.30;99.90
18426;DHT22;9340;48.756;9.226;2024-01-30T15:15:32;11.20;99.90
18426;DHT22;9340;48.756;9.226;2024-01-30T15:17:59;11.10;99.90
18426;DHT22;9340;48.756;9.226;2024-01-30T15:20:26;11.00;99.90
18426;DHT22;9340;48.756;9.226;2024-01-30T15:22:53;11.00;99.90
18426;DHT22;9340;48.756;9.226;2024-01-30T15:25:19;10.80;99.90
18426;DHT22;9340;48.756;9.226;2024-01-30T15:27:46;10.80;99.90
18426;DHT22;9340;48.756;9.226;2024-01-30T15:30:13;10.70;99.90
18426;DHT22;9340;48.756;9.226;2024-01-30T15:32:41;10.60;99.90
18426;DHT22;9340;48.756;9.226;2024-01-30T15:35:08;10.60;99.90
18426;DHT22;9340;48.756;9.226;2024-01-30T15:37:35;10.50;99.90
18426;DHT22;9340;48.756;9.226;2024-01-30T15:40:01;10.40;99.90
18426;DHT22;9340;48.756;9.226;2024-01-30T15:42:31;10.30;99.90
18426;DHT22;9340;48.756;9.226;2024-01-30T15:44:58;10.20;99.90
18426;DHT22;9340;48.756;9.226;2024-01-30T15:47:25;10.10;99.90
18426;DHT22;9340;48.756;9.226;2024-01-30T15:49:53;10.10;99.90
18426;DHT22;9340;48.756;9.226;2024-01-30T15:52:19;10.00;99.90
18426;DHT22;9340;48.756;9.226;2024-01-30T15:54:46;9.90;99.90
18426;DHT22;9340;48.756;9.226;2024-01-30T15:57:13;9.70;99.90